createdAt,value
2023-05-14T00:01:55.393Z,11.90
2023-05-14T00:04:23.762Z,11.63
2023-05-14T00:06:51.233Z,11.59
2023-05-14T00:09:20.064Z,11.65
2023-05-14T00:11:47.493Z,11.62
2023-05-14T00:14:15.232Z,11.52
2023-05-14T00:16:43.170Z,11.56
2023-05-14T00:19:11.341Z,11.61
2023-05-14T00:21:38.891Z,11.65
2023-05-14T00:24:06.991Z,11.55
2023-05-14T00:26:36.112Z,11.45
2023-05-14T00:29:03.591Z,11.33
2023-05-14T00:31:31.113Z,11.34
2023-05-14T00:33:58.644Z,11.43
2023-05-14T00:36:26.496Z,11.38
2023-05-14T00:38:53.936Z,11.25
2023-05-14T00:41:21.852Z,11.28
2023-05-14T00:43:50.730Z,11.24
2023-05-14T00:46:18.429Z,11.36
2023-05-14T00:48:46.163Z,11.16
2023-05-14T00:51:13.637Z,11.13
2023-05-14T00:53:41.106Z,11.17
2023-05-14T00:56:09.120Z,11.06
2023-05-14T00:58:36.574Z,11.11
2023-05-14T01:01:05.699Z,10.93
2023-05-14T01:03:33.991Z,10.96
2023-05-14T01:06:08.069Z,11.12
2023-05-14T01:08:47.557Z,11.08
2023-05-14T01:11:21.282Z,11.11
2023-05-14T01:13:59.899Z,10.96
2023-05-14T01:16:30.409Z,10.96
2023-05-14T01:18:59.656Z,11.03
2023-05-14T01:21:37.033Z,11.00
2023-05-14T01:24:04.969Z,11.06
2023-05-14T01:26:32.634Z,11.03
2023-05-14T01:29:05.137Z,10.95
2023-05-14T01:31:36.094Z,11.15
2023-05-14T01:37:54.375Z,11.85
2023-05-14T01:40:22.087Z,11.86
2023-05-14T01:42:51.746Z,11.33
2023-05-14T01:45:21.171Z,11.34
2023-05-14T01:47:49.041Z,11.19
2023-05-14T01:50:16.734Z,10.94
2023-05-14T01:52:44.374Z,10.74
2023-05-14T01:55:13.507Z,10.96
2023-05-14T01:57:41.268Z,10.84
2023-05-14T02:00:09.526Z,10.72
2023-05-14T02:02:37.105Z,10.54
2023-05-14T02:05:07.062Z,10.79
2023-05-14T02:07:34.850Z,10.90
2023-05-14T02:10:02.630Z,10.87
2023-05-14T02:12:31.504Z,10.84
2023-05-14T02:14:58.995Z,10.68
2023-05-14T02:17:27.352Z,10.73
2023-05-14T02:19:54.836Z,10.61
2023-05-14T02:22:22.362Z,10.58
2023-05-14T02:24:51.291Z,10.58
2023-05-14T02:27:19.279Z,10.75
2023-05-14T02:29:48.111Z,10.87
2023-05-14T02:32:15.661Z,10.76
2023-05-14T02:34:43.143Z,10.70
2023-05-14T02:37:10.604Z,10.74
2023-05-14T02:39:38.064Z,10.82
2023-05-14T02:42:06.970Z,10.90
2023-05-14T02:44:34.449Z,11.05
2023-05-14T02:47:03.428Z,11.03
2023-05-14T02:49:30.945Z,10.76
2023-05-14T02:52:00.672Z,10.74
2023-05-14T02:54:28.413Z,10.59
2023-05-14T02:56:55.903Z,10.78
2023-05-14T02:59:24.783Z,10.83
2023-05-14T03:01:52.836Z,10.68
2023-05-14T03:04:22.351Z,10.66
2023-05-14T03:06:49.849Z,10.61
2023-05-14T03:09:17.365Z,10.66
2023-05-14T03:11:44.872Z,10.70
2023-05-14T03:14:12.327Z,10.56
2023-05-14T03:16:42.053Z,10.52
2023-05-14T03:19:09.787Z,10.47
2023-05-14T03:21:38.801Z,10.37
2023-05-14T03:24:06.887Z,10.45
2023-05-14T03:26:34.736Z,10.55
2023-05-14T03:29:03.808Z,10.53
2023-05-14T03:31:31.503Z,10.45
2023-05-14T03:33:59.067Z,10.51
2023-05-14T03:36:26.496Z,10.46
2023-05-14T03:38:55.590Z,10.60
2023-05-14T03:41:23.866Z,10.52
2023-05-14T03:43:51.582Z,10.40
2023-05-14T03:46:19.057Z,10.42
2023-05-14T03:48:46.576Z,10.39
2023-05-14T03:51:14.158Z,10.26
2023-05-14T03:53:41.850Z,10.31
2023-05-14T03:56:10.663Z,10.16
2023-05-14T03:58:38.133Z,10.22
2023-05-14T04:01:06.053Z,10.33
2023-05-14T04:03:33.596Z,10.30
2023-05-14T04:06:01.198Z,10.10
2023-05-14T04:08:28.679Z,10.18
2023-05-14T04:10:56.198Z,10.21
2023-05-14T04:13:25.000Z,10.09
2023-05-14T04:15:53.129Z,10.18
2023-05-14T04:18:20.617Z,10.27
2023-05-14T04:20:48.091Z,10.32
2023-05-14T04:23:15.807Z,10.25
2023-05-14T04:25:43.267Z,10.23
2023-05-14T04:28:10.741Z,10.37
2023-05-14T04:30:40.381Z,10.35
2023-05-14T04:33:07.927Z,10.52
2023-05-14T04:35:35.534Z,10.61
2023-05-14T04:38:03.072Z,10.78
2023-05-14T04:40:31.306Z,10.74
2023-05-14T04:42:58.958Z,10.81
2023-05-14T04:45:26.459Z,10.85
2023-05-14T04:47:55.416Z,10.92
2023-05-14T04:50:23.164Z,10.94
2023-05-14T04:52:50.985Z,10.93
2023-05-14T04:55:18.469Z,11.01
2023-05-14T04:57:45.997Z,11.21
2023-05-14T05:00:14.469Z,11.28
2023-05-14T05:02:41.943Z,11.28
2023-05-14T05:05:11.235Z,11.37
2023-05-14T05:07:38.761Z,11.50
2023-05-14T05:10:07.333Z,11.80
2023-05-14T05:12:35.318Z,11.88
2023-05-14T05:15:03.571Z,12.01
2023-05-14T05:17:31.196Z,12.07
2023-05-14T05:19:58.742Z,12.20
2023-05-14T05:22:27.865Z,12.37
2023-05-14T05:24:55.373Z,12.47
2023-05-14T05:27:22.879Z,12.49
2023-05-14T05:29:50.350Z,12.56
2023-05-14T05:32:18.127Z,12.77
2023-05-14T05:34:45.774Z,12.88
2023-05-14T05:37:14.910Z,13.11
2023-05-14T05:39:43.977Z,12.93
2023-05-14T05:42:11.481Z,12.80
2023-05-14T05:44:38.946Z,12.89
2023-05-14T05:47:07.125Z,12.82
2023-05-14T05:49:36.760Z,12.70
2023-05-14T05:52:04.508Z,12.79
2023-05-14T05:54:33.108Z,12.73
2023-05-14T05:57:01.971Z,12.71
2023-05-14T05:59:29.427Z,12.85
2023-05-14T06:01:57.020Z,12.92
2023-05-14T06:04:24.552Z,13.04
2023-05-14T06:06:52.259Z,13.19
2023-05-14T06:09:19.988Z,13.18
2023-05-14T06:11:47.685Z,13.33
2023-05-14T06:14:16.462Z,13.43
2023-05-14T06:16:43.928Z,13.72
2023-05-14T06:19:11.556Z,13.76
2023-05-14T06:21:39.175Z,13.85
2023-05-14T06:24:07.296Z,13.88
2023-05-14T06:26:34.762Z,13.93
2023-05-14T06:29:02.274Z,14.01
2023-05-14T06:31:31.282Z,14.12
2023-05-14T06:33:58.805Z,14.23
2023-05-14T06:36:26.257Z,14.24
2023-05-14T06:38:53.734Z,14.16
2023-05-14T06:41:21.333Z,14.40
2023-05-14T06:43:48.803Z,14.42
2023-05-14T06:46:16.302Z,14.42
2023-05-14T06:48:45.795Z,14.55
2023-05-14T06:51:14.134Z,14.62
2023-05-14T06:53:41.952Z,14.69
2023-05-14T06:56:09.417Z,14.79
2023-05-14T06:58:36.907Z,14.92
2023-05-14T07:01:04.768Z,14.92
2023-05-14T07:03:32.400Z,14.99
2023-05-14T07:06:01.261Z,15.04
2023-05-14T07:08:28.714Z,15.12
2023-05-14T07:10:57.193Z,15.08
2023-05-14T07:13:28.254Z,15.20
2023-05-14T07:15:56.564Z,15.34
2023-05-14T07:18:24.370Z,15.45
2023-05-14T07:20:51.829Z,15.53
2023-05-14T07:23:20.632Z,15.60
2023-05-14T07:25:48.401Z,15.63
2023-05-14T07:28:15.864Z,15.74
2023-05-14T07:30:43.336Z,15.82
2023-05-14T07:33:10.854Z,15.91
2023-05-14T07:35:38.465Z,15.94
2023-05-14T07:38:06.287Z,15.96
2023-05-14T07:40:35.117Z,16.04
2023-05-14T07:43:02.580Z,16.10
2023-05-14T07:45:30.074Z,16.25
2023-05-14T07:47:57.665Z,16.32
2023-05-14T07:50:25.801Z,16.44
2023-05-14T07:52:53.472Z,16.46
2023-05-14T07:55:20.917Z,16.49
2023-05-14T07:57:49.722Z,16.58
2023-05-14T08:00:17.978Z,16.68
2023-05-14T08:02:45.595Z,16.73
2023-05-14T08:05:13.154Z,16.79
2023-05-14T08:07:41.319Z,16.85
2023-05-14T08:10:09.836Z,16.89
2023-05-14T08:12:37.313Z,17.05
2023-05-14T08:15:07.972Z,17.13
2023-05-14T08:17:35.485Z,17.17
2023-05-14T08:20:03.059Z,17.31
2023-05-14T08:22:30.628Z,17.36
2023-05-14T08:24:58.059Z,17.49
2023-05-14T08:27:26.229Z,17.62
2023-05-14T08:29:53.714Z,17.63
2023-05-14T08:32:24.074Z,17.69
2023-05-14T08:34:52.232Z,17.74
2023-05-14T08:37:19.773Z,17.86
2023-05-14T08:39:47.232Z,17.94
2023-05-14T08:42:16.484Z,17.98
2023-05-14T08:44:49.348Z,18.15
2023-05-14T08:47:19.288Z,18.26
2023-05-14T08:49:53.413Z,18.34
2023-05-14T08:52:21.279Z,18.44
2023-05-14T08:54:51.451Z,18.58
2023-05-14T08:57:21.036Z,18.72
2023-05-14T08:59:48.574Z,18.85
2023-05-14T09:02:17.600Z,18.93
2023-05-14T09:04:45.740Z,19.01
2023-05-14T09:07:14.614Z,19.11
2023-05-14T09:09:44.908Z,19.15
2023-05-14T09:12:12.368Z,19.23
2023-05-14T09:14:39.849Z,19.40
2023-05-14T09:17:07.460Z,19.56
2023-05-14T09:19:34.970Z,19.61
2023-05-14T09:22:02.436Z,19.64
2023-05-14T09:24:31.510Z,19.86
2023-05-14T09:26:59.520Z,19.93
2023-05-14T09:29:27.452Z,20.07
2023-05-14T09:31:55.482Z,20.24
2023-05-14T09:34:25.669Z,20.33
2023-05-14T09:36:57.044Z,20.45
2023-05-14T09:39:24.778Z,20.56
2023-05-14T09:41:53.693Z,20.64
2023-05-14T09:44:21.867Z,20.81
2023-05-14T09:46:50.386Z,20.88
2023-05-14T09:49:18.023Z,20.93
2023-05-14T09:51:45.821Z,21.04
2023-05-14T09:54:13.582Z,21.14
2023-05-14T09:56:41.018Z,21.29
2023-05-14T09:59:09.815Z,21.40
2023-05-14T10:01:39.202Z,21.04
2023-05-14T10:04:09.176Z,21.35
2023-05-14T10:06:39.191Z,21.44
2023-05-14T10:09:11.938Z,21.59
2023-05-14T10:11:44.699Z,21.36
2023-05-14T10:14:19.387Z,21.58
2023-05-14T10:16:50.698Z,21.85
2023-05-14T10:19:21.601Z,22.02
2023-05-14T10:21:54.124Z,22.01
2023-05-14T10:24:22.035Z,22.02
2023-05-14T10:26:49.868Z,21.99
2023-05-14T10:29:18.686Z,22.05
2023-05-14T10:31:48.334Z,22.19
2023-05-14T10:34:37.534Z,22.22
2023-05-14T10:37:07.181Z,22.02
2023-05-14T10:39:45.495Z,22.19
2023-05-14T10:42:14.045Z,22.31
2023-05-14T10:44:48.342Z,22.51
2023-05-14T10:47:16.707Z,22.51
2023-05-14T10:49:44.874Z,22.56
2023-05-14T10:52:13.133Z,22.75
2023-05-14T10:54:40.529Z,22.91
2023-05-14T10:57:12.660Z,23.09
2023-05-14T10:59:44.116Z,23.23
2023-05-14T11:02:22.957Z,22.87
2023-05-14T11:04:59.081Z,22.81
2023-05-14T11:07:29.790Z,23.03
2023-05-14T11:10:01.991Z,23.09
2023-05-14T11:12:29.772Z,23.24
2023-05-14T11:15:00.667Z,23.25
2023-05-14T11:17:29.001Z,23.02
2023-05-14T11:19:57.336Z,23.31
2023-05-14T11:22:25.386Z,23.44
2023-05-14T11:24:52.997Z,23.66
2023-05-14T11:27:21.532Z,23.78
2023-05-14T11:29:49.851Z,23.95
2023-05-14T11:32:19.644Z,24.02
2023-05-14T11:34:47.543Z,23.91
2023-05-14T11:37:16.477Z,24.04
2023-05-14T11:39:51.994Z,24.14
2023-05-14T11:42:20.221Z,24.20
2023-05-14T11:44:48.962Z,24.20
2023-05-14T11:47:18.606Z,24.18
2023-05-14T11:49:46.425Z,24.28
2023-05-14T11:52:15.776Z,24.42
2023-05-14T11:54:45.154Z,24.48
2023-05-14T11:57:16.544Z,24.34
2023-05-14T11:59:44.503Z,24.72
2023-05-14T12:02:13.634Z,24.79
2023-05-14T12:04:43.540Z,24.61
2023-05-14T12:07:13.016Z,24.86
2023-05-14T12:09:45.042Z,24.87
2023-05-14T12:12:13.675Z,24.63
2023-05-14T12:14:42.690Z,24.66
2023-05-14T12:17:15.033Z,24.79
2023-05-14T12:19:45.584Z,24.95
2023-05-14T12:22:15.390Z,24.88
2023-05-14T12:24:44.777Z,25.10
2023-05-14T12:27:12.891Z,24.88
2023-05-14T12:29:40.504Z,24.11
2023-05-14T12:32:11.316Z,23.98
2023-05-14T12:34:39.179Z,24.28
2023-05-14T12:37:08.152Z,24.33
2023-05-14T12:39:35.810Z,24.47
2023-05-14T12:42:03.388Z,24.98
2023-05-14T12:44:31.180Z,24.79
2023-05-14T12:46:58.709Z,24.10
2023-05-14T12:49:26.247Z,23.70
2023-05-14T12:52:07.819Z,23.17
2023-05-14T12:54:43.666Z,23.08
2023-05-14T12:57:11.204Z,23.95
2023-05-14T12:59:38.678Z,24.43
2023-05-14T13:02:06.374Z,24.92
2023-05-14T13:04:33.953Z,24.89
2023-05-14T13:07:01.599Z,25.48
2023-05-14T13:09:29.043Z,25.13
2023-05-14T13:11:57.847Z,25.25
2023-05-14T13:14:25.353Z,25.65
2023-05-14T13:16:52.846Z,25.69
2023-05-14T13:19:20.283Z,25.58
2023-05-14T13:21:47.738Z,25.70
2023-05-14T13:24:15.190Z,25.62
2023-05-14T13:26:44.391Z,25.13
2023-05-14T13:29:13.309Z,24.86
2023-05-14T13:31:41.994Z,24.41
2023-05-14T13:34:10.173Z,24.34
2023-05-14T13:36:39.515Z,24.40
2023-05-14T13:39:07.123Z,24.38
2023-05-14T13:41:35.653Z,24.17
2023-05-14T13:44:03.108Z,24.08
2023-05-14T13:46:32.024Z,24.11
2023-05-14T13:48:59.504Z,24.62
2023-05-14T13:51:27.017Z,24.86
2023-05-14T13:56:26.878Z,25.33
2023-05-14T13:58:54.373Z,25.52
2023-05-14T14:01:23.178Z,25.29
2023-05-14T14:03:52.288Z,25.29
2023-05-14T14:06:19.787Z,25.45
2023-05-14T14:08:47.250Z,25.24
2023-05-14T14:11:14.739Z,25.62
2023-05-14T14:13:43.774Z,25.55
2023-05-14T14:16:12.542Z,25.37
2023-05-14T14:18:40.060Z,25.52
2023-05-14T14:21:09.222Z,25.60
2023-05-14T14:23:36.661Z,26.00
2023-05-14T14:26:04.153Z,25.92
2023-05-14T14:28:31.783Z,25.74
2023-05-14T14:30:59.402Z,25.96
2023-05-14T14:33:27.238Z,26.02
2023-05-14T14:35:54.679Z,26.10
2023-05-14T14:38:23.533Z,26.14
2023-05-14T14:40:51.279Z,26.15
2023-05-14T14:43:18.796Z,26.10
2023-05-14T14:45:48.877Z,25.77
2023-05-14T14:48:31.344Z,25.77
2023-05-14T14:50:58.901Z,25.94
2023-05-14T14:53:28.094Z,25.96
2023-05-14T14:55:55.901Z,26.04
2023-05-14T14:58:24.113Z,26.03
2023-05-14T15:00:53.573Z,25.97
2023-05-14T15:03:21.818Z,25.71
2023-05-14T15:05:49.804Z,25.66
2023-05-14T15:08:17.261Z,25.59
2023-05-14T15:10:46.636Z,25.69
2023-05-14T15:13:14.199Z,25.76
2023-05-14T15:15:41.646Z,25.53
2023-05-14T15:18:09.185Z,24.97
2023-05-14T15:20:36.731Z,25.07
2023-05-14T15:23:04.233Z,24.97
2023-05-14T15:25:31.731Z,25.04
2023-05-14T15:28:00.536Z,25.01
2023-05-14T15:30:28.028Z,24.76
2023-05-14T15:32:56.373Z,24.89
2023-05-14T15:35:24.258Z,24.38
2023-05-14T15:37:51.923Z,24.56
2023-05-14T15:40:20.027Z,24.68
2023-05-14T15:42:47.728Z,24.52
2023-05-14T15:45:16.531Z,24.53
2023-05-14T15:47:45.116Z,24.62
2023-05-14T15:50:13.018Z,24.50
2023-05-14T15:52:41.376Z,24.39
2023-05-14T15:55:09.640Z,24.57
2023-05-14T15:57:37.184Z,24.48
2023-05-14T16:00:10.325Z,24.21
2023-05-14T16:02:39.994Z,24.30
2023-05-14T16:05:08.778Z,24.07
2023-05-14T16:07:36.996Z,23.87
2023-05-14T16:10:05.087Z,23.76
2023-05-14T16:12:32.663Z,23.94
2023-05-14T16:15:00.190Z,23.76
2023-05-14T16:17:28.327Z,23.65
2023-05-14T16:19:57.290Z,23.78
2023-05-14T16:22:24.728Z,23.81
2023-05-14T16:24:52.173Z,23.55
2023-05-14T16:27:19.809Z,23.39
2023-05-14T16:29:47.283Z,23.65
2023-05-14T16:32:14.791Z,23.57
2023-05-14T16:34:47.317Z,23.53
2023-05-14T16:37:16.334Z,23.44
2023-05-14T16:39:43.822Z,23.22
2023-05-14T16:42:11.337Z,23.09
2023-05-14T16:44:38.757Z,23.20
2023-05-14T16:47:06.423Z,23.03
2023-05-14T16:49:33.941Z,23.08
2023-05-14T16:52:01.458Z,23.09
2023-05-14T16:54:30.287Z,23.04
2023-05-14T16:56:57.994Z,23.05
2023-05-14T16:59:25.824Z,23.04
2023-05-14T17:01:53.487Z,23.14
2023-05-14T17:04:21.370Z,22.93
2023-05-14T17:06:49.184Z,23.05
2023-05-14T17:09:17.608Z,23.07
2023-05-14T17:11:46.479Z,22.90
2023-05-14T17:14:13.920Z,22.70
2023-05-14T17:16:42.259Z,22.48
2023-05-14T17:19:09.794Z,22.42
2023-05-14T17:21:37.328Z,22.49
2023-05-14T17:24:05.019Z,22.44
2023-05-14T17:26:32.586Z,22.18
2023-05-14T17:29:01.731Z,22.25
2023-05-14T17:31:29.217Z,22.23
2023-05-14T17:33:57.377Z,22.21
2023-05-14T17:36:24.910Z,22.12
2023-05-14T17:38:52.402Z,22.04
2023-05-14T17:41:19.867Z,22.02
2023-05-14T17:43:47.319Z,21.74
2023-05-14T17:46:16.150Z,21.64
2023-05-14T17:48:43.679Z,21.77
2023-05-14T17:51:11.169Z,21.50
2023-05-14T17:53:38.658Z,21.60
2023-05-14T17:56:06.403Z,21.73
2023-05-14T17:58:34.228Z,21.74
2023-05-14T18:01:02.375Z,21.46
2023-05-14T18:03:31.915Z,21.57
2023-05-14T18:06:00.351Z,21.55
2023-05-14T18:08:27.904Z,21.33
2023-05-14T18:10:55.387Z,21.31
2023-05-14T18:13:22.904Z,21.32
2023-05-14T18:15:54.056Z,21.29
2023-05-14T18:18:23.521Z,21.24
2023-05-14T18:20:52.477Z,21.11
2023-05-14T18:23:19.970Z,20.78
2023-05-14T18:25:47.812Z,20.89
2023-05-14T18:28:15.561Z,20.91
2023-05-14T18:30:43.408Z,20.88
2023-05-14T18:33:11.109Z,20.65
2023-05-14T18:35:38.669Z,20.52
2023-05-14T18:38:07.914Z,20.56
2023-05-14T18:40:35.455Z,20.64
2023-05-14T18:43:02.994Z,20.70
2023-05-14T18:45:30.569Z,20.44
2023-05-14T18:47:58.308Z,20.52
2023-05-14T18:50:25.867Z,20.55
2023-05-14T18:52:53.392Z,20.34
2023-05-14T18:55:22.230Z,20.32
2023-05-14T18:57:50.233Z,20.32
2023-05-14T19:00:18.231Z,20.23
2023-05-14T19:02:45.763Z,20.32
2023-05-14T19:05:14.079Z,20.32
2023-05-14T19:07:42.796Z,19.92
2023-05-14T19:10:11.386Z,20.07
2023-05-14T19:12:40.292Z,20.07
2023-05-14T19:15:08.749Z,19.91
2023-05-14T19:17:37.312Z,19.98
2023-05-14T19:20:05.990Z,19.92
2023-05-14T19:22:33.552Z,19.59
2023-05-14T19:25:01.284Z,19.32
2023-05-14T19:27:29.133Z,19.13
2023-05-14T19:29:57.942Z,18.80
2023-05-14T19:32:25.448Z,18.72
2023-05-14T19:34:52.967Z,18.64
2023-05-14T19:37:21.236Z,18.37
2023-05-14T19:39:48.841Z,18.37
2023-05-14T19:42:16.522Z,18.31
2023-05-14T19:44:44.108Z,18.14
2023-05-14T19:47:13.079Z,18.14
2023-05-14T19:49:40.659Z,17.97
2023-05-14T19:52:08.134Z,18.00
2023-05-14T19:54:35.618Z,17.81
2023-05-14T19:57:03.389Z,17.81
2023-05-14T19:59:30.968Z,17.75
2023-05-14T20:01:58.540Z,17.73
2023-05-14T20:04:28.136Z,17.75
2023-05-14T20:06:56.744Z,17.76
2023-05-14T20:09:24.209Z,17.84
2023-05-14T20:11:51.706Z,17.66
2023-05-14T20:14:19.164Z,17.71
2023-05-14T20:16:48.737Z,17.51
2023-05-14T20:19:16.336Z,17.50
2023-05-14T20:21:45.284Z,17.50
2023-05-14T20:24:12.723Z,17.49
2023-05-14T20:26:40.186Z,17.51
2023-05-14T20:29:09.051Z,17.52
2023-05-14T20:31:36.499Z,17.28
2023-05-14T20:34:04.477Z,17.20
2023-05-14T20:36:31.921Z,17.22
2023-05-14T20:39:01.327Z,17.24
2023-05-14T20:41:28.781Z,17.25
2023-05-14T20:43:56.233Z,17.33
2023-05-14T20:46:23.825Z,17.21
2023-05-14T20:48:51.838Z,17.29
2023-05-14T20:51:19.311Z,17.22
2023-05-14T20:53:46.780Z,17.15
2023-05-14T20:56:15.924Z,17.05
2023-05-14T20:58:43.413Z,17.03
2023-05-14T21:01:11.058Z,16.90
2023-05-14T21:03:38.661Z,16.84
2023-05-14T21:06:06.391Z,17.00
2023-05-14T21:08:34.927Z,16.82
2023-05-14T21:11:02.414Z,16.62
2023-05-14T21:13:31.266Z,16.75
2023-05-14T21:16:00.051Z,16.95
2023-05-14T21:18:32.562Z,16.83
2023-05-14T21:21:00.131Z,16.79
2023-05-14T21:23:27.657Z,16.64
2023-05-14T21:25:55.220Z,16.47
2023-05-14T21:28:22.905Z,16.37
2023-05-14T21:30:52.875Z,16.23
2023-05-14T21:33:20.373Z,16.17
2023-05-14T21:35:47.853Z,15.97
2023-05-14T21:38:15.451Z,15.89
2023-05-14T21:40:42.956Z,15.79
2023-05-14T21:43:10.697Z,15.79
2023-05-14T21:45:38.233Z,15.80
2023-05-14T21:48:07.595Z,15.72
2023-05-14T21:50:35.308Z,15.77
2023-05-14T21:53:03.032Z,15.78
2023-05-14T21:55:30.836Z,15.79
2023-05-14T21:57:58.748Z,15.58
2023-05-14T22:00:26.566Z,15.39
2023-05-14T22:02:54.209Z,15.45
2023-05-14T22:05:25.535Z,15.53
2023-05-14T22:07:53.322Z,15.52
2023-05-14T22:10:20.983Z,15.45
2023-05-14T22:12:48.565Z,15.47
2023-05-14T22:15:16.328Z,15.40
2023-05-14T22:17:43.918Z,15.44
2023-05-14T22:20:11.816Z,15.44
2023-05-14T22:22:40.661Z,15.30
2023-05-14T22:25:08.984Z,15.33
2023-05-14T22:27:36.527Z,15.26
2023-05-14T22:30:06.128Z,15.09
2023-05-14T22:32:33.662Z,14.89
2023-05-14T22:35:01.644Z,14.88
2023-05-14T22:37:29.149Z,14.94
2023-05-14T22:39:57.950Z,14.91
2023-05-14T22:42:26.492Z,14.88
2023-05-14T22:44:53.937Z,14.92
2023-05-14T22:47:21.474Z,14.82
2023-05-14T22:49:48.949Z,14.83
2023-05-14T22:52:16.414Z,14.80
2023-05-14T22:54:43.846Z,14.82
2023-05-14T22:57:12.710Z,14.63
2023-05-14T22:59:40.341Z,14.62
2023-05-14T23:02:07.939Z,14.66
2023-05-14T23:04:36.320Z,14.65
2023-05-14T23:07:03.892Z,14.70
2023-05-14T23:09:31.341Z,14.69
2023-05-14T23:11:58.764Z,14.62
2023-05-14T23:14:27.573Z,14.61
2023-05-14T23:16:55.070Z,14.39
2023-05-14T23:19:22.740Z,14.67
2023-05-14T23:21:50.439Z,14.59
2023-05-14T23:24:17.915Z,14.71
2023-05-14T23:26:45.486Z,15.33
2023-05-14T23:29:12.923Z,15.50
2023-05-14T23:31:43.462Z,15.62
2023-05-14T23:34:10.975Z,15.20
2023-05-14T23:36:39.643Z,14.99
2023-05-14T23:39:07.189Z,15.71
2023-05-14T23:41:34.681Z,15.35
2023-05-14T23:44:02.182Z,14.95
2023-05-14T23:46:29.889Z,14.78
2023-05-14T23:48:58.967Z,14.61
2023-05-14T23:51:27.872Z,14.49
2023-05-14T23:53:58.218Z,14.24
2023-05-14T23:56:27.313Z,14.13
2023-05-14T23:58:54.998Z,13.99
